25 de junho de 2022

Hora Código Clima Temp. Visibilidade Tecto Vento METAR/SPECI
3:25 da manhã
V
63 °F 5⅝ mi - 160° 160° 4 kt METAR EHGG 250125Z AUTO 16004KT 130V200 9000 NCD 17/16 Q1008
2:55 da manhã
V
63 °F 5⅝ mi - 170° 170° 4 kt METAR EHGG 250055Z AUTO 17004KT 140V200 9000 NCD 17/16 Q1008
2:25 da manhã
M
63 °F 3¾ mi - 180° 180° 5 kt METAR EHGG 250025Z AUTO 18005KT 6000 NSC 17/16 Q1008
1:55 da manhã
M
63 °F 4⅜ mi - 170° 170° 4 kt METAR EHGG 242355Z AUTO 17004KT 7000 NCD 17/16 Q1007
1:25 da manhã
V
63 °F 6¼ mi+ - 180° 180° 4 kt METAR EHGG 242325Z AUTO 18004KT 140V200 9999 NCD 17/16 Q1007
12:55 da manhã
V
64 °F 5 mi - 130° 130° 3 kt METAR EHGG 242255Z AUTO 13003KT 100V160 8000 NCD 18/17 Q1007
12:25 da manhã
I
63 °F 2⅛ mi - 150° 150° 3 kt METAR EHGG 242225Z AUTO 15003KT 3500 BR NSC 17/17 Q1007

24 de junho de 2022

Hora Código Clima Temp. Visibilidade Tecto Vento METAR/SPECI
11:55 da tarde
I
63 °F 1¾ mi - Var Var 2 kt METAR EHGG 242155Z AUTO VRB02KT 2800 BR NSC 17/17 Q1007
11:25 da tarde
I
64 °F 2⅜ mi - 110° 110° 1 kt METAR EHGG 242125Z AUTO 11001KT 3800 BR NSC 18/17 Q1008
10:55 da tarde
V
64 °F 5 mi - 030° 030° 3 kt METAR EHGG 242055Z AUTO 03003KT 330V090 8000 NSC 18/17 Q1007
10:25 da tarde
V
66 °F 5 mi - Var Var 1 kt METAR EHGG 242025Z AUTO VRB01KT 8000 FEW015CB 19/18 Q1007 TEMPO 6000 SHRA SCT020CB
9:55 da tarde
M
66 °F 3¾ mi 4.000 ft 130° 130° 3 kt METAR EHGG 241955Z AUTO 13003KT 6000 BKN040 19/18 Q1007 TEMPO 4000 SHRA TSRA SCT020CB
9:25 da tarde
V
68 °F 6¼ mi+ - Var Var 2 kt METAR EHGG 241925Z AUTO VRB02KT 9999 NSC 20/18 Q1007 NOSIG
8:55 da tarde
V
68 °F 6¼ mi+ - 140° 140° 3 kt METAR EHGG 241855Z AUTO 14003KT 080V180 9999 NSC 20/19 Q1006 NOSIG
8:25 da tarde
V
70 °F 6¼ mi+ - 150° 150° 2 kt METAR EHGG 241825Z AUTO 15002KT 9999 NSC 21/19 Q1006 NOSIG
7:55 da tarde
V
70 °F 6¼ mi+ - Var Var 2 kt METAR EHGG 241755Z AUTO VRB02KT 9999 NSC 21/18 Q1006 NOSIG
7:25 da tarde
V
68 °F 6¼ mi+ - 150° 150° 5 kt METAR EHGG 241725Z AUTO 15005KT 120V180 9999 FEW015CB SCT030 20/18 Q1006 REDZ NOSIG
6:55 da tarde
V
73 °F 6¼ mi+ - 240° 240° 4 kt METAR EHGG 241655Z AUTO 24004KT 210V280 9999 -RA SCT024CB SCT029 23/17 Q1005 TEMPO 4000 SHRA TSRA SCT020CB
6:25 da tarde
V
73 °F 6¼ mi+ 3.400 ft 230° 230° 4 kt METAR EHGG 241625Z AUTO 23004KT 190V290 9999 SCT029 BKN034 23/16 Q1005 TEMPO 6000 SHRA SCT020CB
5:55 da tarde
V
73 °F 6¼ mi+ - 180° 180° 3 kt METAR EHGG 241555Z AUTO 18003KT 120V280 9999 NSC 23/17 Q1006 NOSIG
5:25 da tarde
M
72 °F 6¼ mi+ 1.900 ft 180° 180° 4 kt METAR EHGG 241525Z AUTO 18004KT 130V220 9999 BKN019 BKN029 BKN038 22/17 Q1006 NOSIG
4:55 da tarde
V
72 °F 6¼ mi+ 3.100 ft 200° 200° 4 kt METAR EHGG 241455Z AUTO 20004KT 150V280 9999 SCT018 SCT023 BKN031 22/17 Q1006 NOSIG
4:25 da tarde
M
72 °F 6¼ mi+ 1.500 ft 160° 160° 2 kt METAR EHGG 241425Z AUTO 16002KT 9999 BKN015 BKN019 22/17 Q1006 NOSIG
3:55 da tarde
M
70 °F 6¼ mi+ 1.500 ft Var Var 2 kt METAR EHGG 241355Z AUTO VRB02KT 9999 FEW011 SCT013 BKN015 21/18 Q1006 NOSIG
3:25 da tarde
I
68 °F 6¼ mi+ 800 ft Var Var 2 kt METAR EHGG 241325Z AUTO VRB02KT 9999 FEW007 BKN008 BKN010 20/18 Q1006 BECMG BKN020
2:55 da tarde
V
66 °F 6¼ mi+ - Var Var 2 kt METAR EHGG 241255Z AUTO VRB02KT 9999 FEW005 SCT007 19/18 Q1006 TEMPO BKN012
2:25 da tarde
M
64 °F 6¼ mi+ 2.600 ft Var Var 2 kt METAR EHGG 241225Z AUTO VRB02KT 9999 -RADZ FEW020 OVC026 18/17 Q1006 TEMPO BKN012
1:55 da tarde
V
64 °F 6¼ mi+ 4.000 ft Var Var 2 kt METAR EHGG 241155Z AUTO VRB02KT 9999 -RA SCT015CB SCT025 OVC040 18/17 Q1006 TEMPO BKN012
1:25 da tarde
M
63 °F 6¼ mi+ 1.500 ft 250° 250° 6 kt METAR EHGG 241125Z AUTO 25006KT 220V280 9999 -RA BKN015CB 17/17 Q1006 TEMPO 4000 RA SHRA BKN008 FEW040CB
12:55 da tarde
M
64 °F 5 mi 1.500 ft 250° 250° 9 kt METAR EHGG 241055Z AUTO 25009KT 210V270 8000 -RA FEW004 SCT009 BKN015CB 18/17 Q1005 RERA TEMPO 4000 RA SHRA BKN008 FEW040CB
12:25 da tarde
M
66 °F 4⅜ mi 1.000 ft 250° 250° 6 kt METAR EHGG 241025Z AUTO 25006KT 7000 SHRA FEW004 SCT008 BKN010 BKN015CB 19/18 Q1005 TEMPO 4000 RA SHRA BKN008 FEW040CB
11:55 da manhã
M
66 °F 5⅝ mi 1.000 ft 240° 240° 7 kt METAR EHGG 240955Z AUTO 24007KT 9000 -RA FEW004 SCT005 BKN010 FEW015CB 19/18 Q1005 RERA TEMPO 4000 RA SHRA BKN008 FEW040CB
11:25 da manhã
M
66 °F 5 mi 1.100 ft 230° 230° 5 kt METAR EHGG 240925Z AUTO 23005KT 8000 RA FEW006 SCT009 BKN011 FEW015CB 19/18 Q1005 REDZRA TEMPO 4000 RA SHRA BKN008 FEW040CB
10:55 da manhã
I
68 °F 6¼ mi+ 800 ft 230° 230° 5 kt METAR EHGG 240855Z AUTO 23005KT 200V270 9999 DZ FEW005 SCT006 BKN008 20/19 Q1004 TEMPO 4000 RA SHRA BKN008 FEW040CB
10:25 da manhã
V
68 °F 6¼ mi+ - 260° 260° 5 kt METAR EHGG 240825Z AUTO 26005KT 230V300 9999 -RA FEW015CB 20/19 Q1004 REDZRA TEMPO 4000 RA SHRA BKN008 FEW040CB
9:55 da manhã
M
66 °F 6¼ mi+ 1.500 ft 220° 220° 6 kt METAR EHGG 240755Z AUTO 22006KT 180V250 9999 -RA FEW005 SCT009 BKN015CB 19/18 Q1005 REDZRA TEMPO 4000 RA SHRA BKN008 FEW040CB
9:25 da manhã
M
66 °F 4⅜ mi 1.600 ft 280° 280° 4 kt METAR EHGG 240725Z AUTO 28004KT 180V300 7000 SHRA FEW001 FEW015CB OVC016 19/18 Q1005 TEMPO 4000 SHRA FEW040CB
8:55 da manhã
M
68 °F 6¼ mi+ 1.700 ft 320° 320° 3 kt METAR EHGG 240655Z AUTO 32003KT 270V350 9999 FEW011 FEW015CB OVC017 20/18 Q1005 RETS TEMPO 6000 SHRA FEW040CB
8:25 da manhã
M
66 °F 3⅛ mi 1.500 ft Var Var 6 kt METAR EHGG 240625Z AUTO VRB06KT 5000 +TSRA FEW004 BKN015CB BKN029 19/17 Q1005 BECMG 9999 NSW
7:55 da manhã
M
68 °F 6¼ mi+ 1.400 ft 280° 280° 3 kt METAR EHGG 240555Z AUTO 28003KT 220V330 9999 OVC014 20/14 Q1004 TEMPO 6000 SHRA FEW040CB
7:25 da manhã
V
68 °F 6¼ mi+ - 220° 220° 3 kt METAR EHGG 240525Z AUTO 22003KT 190V260 9999 NSC 20/13 Q1004 TEMPO 6000 SHRA FEW040CB
6:55 da manhã
V
68 °F 6¼ mi+ - Var Var 2 kt METAR EHGG 240455Z AUTO VRB02KT 9999 NSC 20/12 Q1004 NOSIG
6:25 da manhã
V
66 °F 6¼ mi+ - 110° 110° 3 kt METAR EHGG 240425Z AUTO 11003KT 080V180 9999 NSC 19/12 Q1004 NOSIG
5:55 da manhã
V
64 °F 6¼ mi+ - 110° 110° 3 kt METAR EHGG 240355Z AUTO 11003KT 070V140 9999 NSC 18/12 Q1005
5:25 da manhã
V
61 °F 6¼ mi+ - 060° 060° 6 kt METAR EHGG 240325Z AUTO 06006KT 9999 NSC 16/12 Q1004
4:55 da manhã
V
61 °F 6¼ mi+ - 060° 060° 6 kt METAR EHGG 240255Z AUTO 06006KT 9999 NSC 16/13 Q1005
4:25 da manhã
V
59 °F 6¼ mi+ - 060° 060° 4 kt METAR EHGG 240225Z AUTO 06004KT 9999 NSC 15/12 Q1005
3:55 da manhã
V
61 °F 6¼ mi+ - 050° 050° 5 kt METAR EHGG 240155Z AUTO 05005KT 9999 NSC 16/12 Q1006
3:25 da manhã
V
61 °F 6¼ mi+ - 040° 040° 3 kt METAR EHGG 240125Z AUTO 04003KT 9999 NSC 16/12 Q1006
2:55 da manhã
V
64 °F 6¼ mi+ - 060° 060° 3 kt METAR EHGG 240055Z AUTO 06003KT 9999 NSC 18/12 Q1006
2:25 da manhã
V
63 °F 6¼ mi+ - 070° 070° 3 kt METAR EHGG 240025Z AUTO 07003KT 9999 NSC 17/12 Q1007
1:55 da manhã
V
63 °F 6¼ mi+ - 140° 140° 3 kt METAR EHGG 232355Z AUTO 14003KT 070V240 9999 NSC 17/11 Q1007
1:25 da manhã
V
68 °F 6¼ mi+ - 130° 130° 5 kt METAR EHGG 232325Z AUTO 13005KT 080V240 9999 NSC 20/11 Q1007
12:55 da manhã
V
72 °F 6¼ mi+ - 100° 100° 6 kt METAR EHGG 232255Z AUTO 10006KT 060V140 9999 NSC 22/10 Q1007
12:25 da manhã
V
72 °F 6¼ mi+ - 100° 100° 6 kt METAR EHGG 232225Z AUTO 10006KT 060V130 9999 NSC 22/10 Q1007

23 de junho de 2022

Hora Código Clima Temp. Visibilidade Tecto Vento METAR/SPECI
11:55 da tarde
V
72 °F 6¼ mi+ - 100° 100° 5 kt METAR EHGG 232155Z AUTO 10005KT 9999 NSC 22/11 Q1008
11:25 da tarde
V
73 °F 6¼ mi+ - 100° 100° 4 kt METAR EHGG 232125Z AUTO 10004KT 9999 NSC 23/12 Q1008
10:55 da tarde
V
73 °F 6¼ mi+ - 090° 090° 4 kt METAR EHGG 232055Z AUTO 09004KT 9999 NSC 23/13 Q1008 NOSIG
10:25 da tarde
V
75 °F 6¼ mi+ - 100° 100° 4 kt METAR EHGG 232025Z AUTO 10004KT 070V130 9999 NCD 24/12 Q1008 NOSIG
9:55 da tarde
V
77 °F 6¼ mi+ - 100° 100° 4 kt METAR EHGG 231955Z AUTO 10004KT 060V130 9999 NCD 25/13 Q1008 NOSIG
9:25 da tarde
V
77 °F 6¼ mi+ - 090° 090° 4 kt METAR EHGG 231925Z AUTO 09004KT 9999 NCD 25/14 Q1008 NOSIG
8:55 da tarde
V
81 °F 6¼ mi+ - 090° 090° 4 kt METAR EHGG 231855Z AUTO 09004KT 070V130 9999 NSC 27/13 Q1008 NOSIG
8:25 da tarde
V
84 °F 6¼ mi+ - 090° 090° 5 kt METAR EHGG 231825Z AUTO 09005KT 060V120 9999 NSC 29/13 Q1008 NOSIG
7:55 da tarde
V
84 °F 6¼ mi+ - 100° 100° 6 kt METAR EHGG 231755Z AUTO 10006KT 9999 NCD 29/12 Q1008 NOSIG
7:25 da tarde
V
86 °F 6¼ mi+ - 120° 120° 7 kt METAR EHGG 231725Z AUTO 12007KT 080V170 9999 NCD 30/11 Q1008 NOSIG
6:55 da tarde
V
86 °F 6¼ mi+ - 120° 120° 7 kt METAR EHGG 231655Z AUTO 12007KT 080V160 9999 NCD 30/11 Q1008 NOSIG
6:25 da tarde
V
88 °F 6¼ mi+ - 140° 140° 7 kt METAR EHGG 231625Z AUTO 14007KT 070V220 9999 NCD 31/11 Q1009 NOSIG
5:55 da tarde
V
88 °F 6¼ mi+ - 180° 180° 7 kt METAR EHGG 231555Z AUTO 18007KT 090V220 9999 NCD 31/11 Q1009 NOSIG
5:25 da tarde
V
88 °F 6¼ mi+ - 140° 140° 6 kt METAR EHGG 231525Z AUTO 14006KT 080V170 9999 NCD 31/11 Q1009 NOSIG
4:55 da tarde
V
88 °F 6¼ mi+ - 170° 170° 7 kt METAR EHGG 231455Z AUTO 17007KT 110V200 9999 NCD 31/11 Q1009 NOSIG
4:25 da tarde
V
86 °F 6¼ mi+ - 110° 110° 6 kt METAR EHGG 231425Z AUTO 11006KT 070V160 9999 NCD 30/11 Q1010 NOSIG
3:55 da tarde
V
86 °F 6¼ mi+ - 100° 100° 8 kt METAR EHGG 231355Z AUTO 10008KT 040V170 9999 NCD 30/11 Q1010 NOSIG
3:25 da tarde
V
86 °F 6¼ mi+ - 140° 140° 7 kt METAR EHGG 231325Z AUTO 14007KT 050V220 9999 NCD 30/12 Q1010 NOSIG
2:55 da tarde
V
84 °F 6¼ mi+ - 110° 110° 7 kt METAR EHGG 231255Z AUTO 11007KT 060V180 9999 NCD 29/11 Q1011 NOSIG
2:25 da tarde
V
84 °F 6¼ mi+ - 110° 110° 7 kt METAR EHGG 231225Z AUTO 11007KT 050V160 9999 NCD 29/12 Q1011 NOSIG
1:55 da tarde
V
82 °F 6¼ mi+ - 090° 090° 8 kt METAR EHGG 231155Z AUTO 09008KT 050V130 9999 NCD 28/13 Q1011 NOSIG
1:25 da tarde
V
82 °F 6¼ mi+ - 110° 110° 8 kt METAR EHGG 231125Z AUTO 11008KT 050V160 9999 NCD 28/13 Q1011 NOSIG
12:55 da tarde
V
81 °F 6¼ mi+ - 100° 100° 8 kt METAR EHGG 231055Z AUTO 10008KT 050V150 9999 NCD 27/13 Q1012 NOSIG
12:25 da tarde
V
79 °F 6¼ mi+ - 080° 080° 8 kt METAR EHGG 231025Z AUTO 08008KT 040V140 9999 NCD 26/13 Q1012 NOSIG
11:55 da manhã
V
77 °F 6¼ mi+ - 080° 080° 8 kt METAR EHGG 230955Z AUTO 08008KT 040V130 9999 NCD 25/14 Q1012 NOSIG
11:25 da manhã
V
75 °F 6¼ mi+ - 090° 090° 7 kt METAR EHGG 230925Z AUTO 09007KT 050V130 9999 NCD 24/15 Q1012 NOSIG
10:55 da manhã
V
73 °F 6¼ mi+ - 080° 080° 7 kt METAR EHGG 230855Z AUTO 08007KT 040V110 9999 NCD 23/14 Q1012 NOSIG
10:25 da manhã
V
72 °F 6¼ mi+ - 080° 080° 7 kt METAR EHGG 230825Z AUTO 08007KT 040V120 9999 NCD 22/15 Q1013 NOSIG
9:55 da manhã
V
70 °F 6¼ mi+ - 080° 080° 7 - 18 kt METAR EHGG 230755Z AUTO 08007G18KT 330V130 9999 NCD 21/15 Q1013 NOSIG
9:25 da manhã
V
66 °F 6¼ mi+ - 100° 100° 6 kt METAR EHGG 230725Z AUTO 10006KT 040V170 9999 NCD 19/14 Q1013 NOSIG
8:55 da manhã
V
64 °F 6¼ mi+ - 080° 080° 8 kt METAR EHGG 230655Z AUTO 08008KT 050V110 9999 NCD 18/14 Q1013 NOSIG
8:25 da manhã
V
63 °F 6¼ mi+ - 080° 080° 7 kt METAR EHGG 230625Z AUTO 08007KT 050V110 9999 NCD 17/14 Q1013 NOSIG
7:55 da manhã
V
61 °F 6¼ mi+ - 090° 090° 5 kt METAR EHGG 230555Z AUTO 09005KT 050V120 9999 NCD 16/13 Q1013 NOSIG
7:25 da manhã
V
59 °F 6¼ mi+ - 090° 090° 5 kt METAR EHGG 230525Z AUTO 09005KT 050V130 9999 NCD 15/13 Q1013 NOSIG
6:55 da manhã
V
57 °F 6¼ mi+ - 080° 080° 7 kt METAR EHGG 230455Z AUTO 08007KT 9999 NCD 14/12 Q1013 NOSIG
6:25 da manhã
V
55 °F 6¼ mi+ - 080° 080° 7 kt METAR EHGG 230425Z AUTO 08007KT 050V110 9999 NCD 13/12 Q1013 NOSIG
5:55 da manhã
V
55 °F 5⅝ mi - 080° 080° 6 kt METAR EHGG 230355Z AUTO 08006KT 9000 NCD 13/12 Q1013 NOSIG
5:25 da manhã
M
52 °F 3⅛ mi - 060° 060° 7 kt METAR EHGG 230325Z AUTO 06007KT 5000 NCD 11/11 Q1013
4:55 da manhã
V
52 °F 5 mi - 070° 070° 5 kt METAR EHGG 230255Z AUTO 07005KT 8000 NCD 11/11 Q1013
4:25 da manhã
V
54 °F 6¼ mi+ - 070° 070° 7 kt METAR EHGG 230225Z AUTO 07007KT 9999 NCD 12/11 Q1014
3:55 da manhã
V
52 °F 6¼ mi+ - 080° 080° 4 kt METAR EHGG 230155Z AUTO 08004KT 050V110 9999 NCD 11/10 Q1014
3:25 da manhã
V
52 °F 6¼ mi+ - 070° 070° 4 kt METAR EHGG 230125Z AUTO 07004KT 9999 NCD 11/11 Q1014
2:55 da manhã
V
52 °F 6¼ mi+ - 070° 070° 4 kt METAR EHGG 230055Z AUTO 07004KT 9999 NCD 11/11 Q1014
2:25 da manhã
V
54 °F 6¼ mi+ - 070° 070° 5 kt METAR EHGG 230025Z AUTO 07005KT 9999 NCD 12/11 Q1014
1:55 da manhã
V
54 °F 6¼ mi+ - 070° 070° 4 kt METAR EHGG 222355Z AUTO 07004KT 9999 NCD 12/11 Q1014
1:25 da manhã
V
54 °F 6¼ mi+ - 060° 060° 5 kt METAR EHGG 222325Z AUTO 06005KT 9999 NCD 12/11 Q1014
12:55 da manhã
V
54 °F 6¼ mi+ - 050° 050° 4 kt METAR EHGG 222255Z AUTO 05004KT 9999 NCD 12/11 Q1014
12:25 da manhã
V
55 °F 6¼ mi+ - 080° 080° 3 kt METAR EHGG 222225Z AUTO 08003KT 9999 NCD 13/11 Q1014

22 de junho de 2022

Hora Código Clima Temp. Visibilidade Tecto Vento METAR/SPECI
11:55 da tarde
V
55 °F 6¼ mi+ - 060° 060° 7 kt METAR EHGG 222155Z AUTO 06007KT 9999 NCD 13/12 Q1014
11:25 da tarde
V
57 °F 6¼ mi+ - 050° 050° 7 kt METAR EHGG 222125Z AUTO 05007KT 9999 NCD 14/12 Q1014
10:55 da tarde
V
59 °F 6¼ mi+ - 040° 040° 6 kt METAR EHGG 222055Z AUTO 04006KT 9999 NCD 15/13 Q1014
10:25 da tarde
V
59 °F 6¼ mi+ - 030° 030° 7 kt METAR EHGG 222025Z AUTO 03007KT 360V060 9999 NCD 15/13 Q1014 NOSIG
9:55 da tarde
V
61 °F 6¼ mi+ - 030° 030° 8 kt METAR EHGG 221955Z AUTO 03008KT 350V060 9999 NCD 16/13 Q1014 NOSIG
9:25 da tarde
V
61 °F 6¼ mi+ - 040° 040° 8 kt METAR EHGG 221925Z AUTO 04008KT 010V070 9999 NCD 16/13 Q1013 NOSIG
8:55 da tarde
V
63 °F 6¼ mi+ - 040° 040° 10 kt METAR EHGG 221855Z AUTO 04010KT 010V080 9999 NCD 17/13 Q1013 NOSIG
8:25 da tarde
V
64 °F 6¼ mi+ - 030° 030° 10 kt METAR EHGG 221825Z AUTO 03010KT 350V070 9999 NCD 18/13 Q1013 NOSIG
7:25 da tarde
V
66 °F 6¼ mi+ - 020° 020° 9 kt METAR EHGG 221725Z AUTO 02009KT 330V050 9999 NSC 19/12 Q1013 NOSIG
Dados mais antigos

Baixe nosso aplicativo

Fácil acesso a todas as condições meteorológicas da aviação no seu celular e no seu tablet.
Com muitas características não disponíveis no site, como suporte offline e uma lista pessoal de aeroportos.

Nós e terceiros acompanhamos seu comportamento na internet em nosso site com cookies. Se você continuar, nós assumimos que você concorda com nossa política de cookies. Saiba mais